Lime Rock, Pennsylvania
Current Conditions -  °F | °C
As of 12:53 AM on Tuesday 21 Oct 2014 (Local Time) from KLNS Reporting Station
Light Rain Light Rain  
Wind Chill: 53°   Ceiling: 8500
Heat Index: 53°   Visibility: 10mi
Dew Point: 49°   Wind: 5mph
Humidity: 86%   Direction: 230°SW
Pressure: 29.92"   Gusts: NA
Location:  40.1769°N, 76.295°W
Report Text: KLNS 210453Z 23004KT 10SM -RA OVC085 12/09 A2992 RMK AO2 RAB19 SLP132 P0001 T01170094 401560006
Loading
Personal Weather Stations






























Interactive Weather Map
Tropical Storm Tracking
New forecast layout! Learn more

10-Day Weather Forecast

Advertisements
Track Severe Weather on mobile